createdAt,value
2022-10-11T00:00:24.090Z,9.90
2022-10-11T00:02:26.585Z,10.10
2022-10-11T00:04:28.255Z,11.80
2022-10-11T00:06:30.055Z,10.20
2022-10-11T00:08:35.615Z,11.05
2022-10-11T00:10:37.255Z,10.30
2022-10-11T00:12:38.999Z,11.15
2022-10-11T00:14:40.694Z,11.30
2022-10-11T00:16:44.532Z,11.38
2022-10-11T00:18:46.240Z,12.27
2022-10-11T00:20:48.106Z,11.55
2022-10-11T00:22:49.869Z,12.13
2022-10-11T00:24:52.996Z,11.40
2022-10-11T00:26:54.683Z,12.30
2022-10-11T00:28:56.359Z,12.23
2022-10-11T00:30:58.215Z,13.68
2022-10-11T00:32:59.860Z,13.27
2022-10-11T00:35:06.221Z,13.25
2022-10-11T00:37:07.809Z,13.27
2022-10-11T00:39:09.478Z,13.00
2022-10-11T00:41:11.933Z,13.10
2022-10-11T00:43:18.305Z,13.32
2022-10-11T00:45:32.174Z,14.00
2022-10-11T00:47:33.850Z,13.80
2022-10-11T00:49:39.064Z,13.15
2022-10-11T00:51:43.737Z,14.02
2022-10-11T00:53:47.264Z,14.65
2022-10-11T00:55:55.138Z,14.10
2022-10-11T00:57:57.189Z,14.07
2022-10-11T00:59:59.038Z,15.07
2022-10-11T01:02:00.595Z,15.95
2022-10-11T01:04:02.834Z,14.27
2022-10-11T01:06:04.993Z,15.93
2022-10-11T01:08:07.416Z,15.15
2022-10-11T01:10:09.265Z,15.25
2022-10-11T01:12:20.555Z,15.50
2022-10-11T01:14:44.036Z,14.50
2022-10-11T01:16:58.480Z,15.88
2022-10-11T01:19:15.034Z,16.08
2022-10-11T01:21:40.950Z,15.60
2022-10-11T01:24:04.661Z,14.63
2022-10-11T01:26:46.706Z,15.43
2022-10-11T01:29:02.421Z,15.63
2022-10-11T01:31:46.093Z,15.68
2022-10-11T01:33:58.249Z,15.15
2022-10-11T01:36:06.486Z,15.40
2022-10-11T01:38:34.613Z,15.70
2022-10-11T01:40:42.068Z,16.20
2022-10-11T01:42:44.077Z,15.43
2022-10-11T01:44:47.937Z,16.02
2022-10-11T01:46:51.780Z,15.80
2022-10-11T01:48:56.331Z,16.50
2022-10-11T01:50:58.869Z,16.35
2022-10-11T01:53:11.148Z,15.93
2022-10-11T01:55:22.238Z,16.15
2022-10-11T01:57:41.188Z,16.73
2022-10-11T02:00:07.481Z,18.00
2022-10-11T02:02:32.182Z,16.63
2022-10-11T02:04:36.271Z,17.20
2022-10-11T02:07:02.048Z,17.92
2022-10-11T02:09:14.773Z,18.10
2022-10-11T02:11:26.828Z,17.73
2022-10-11T02:13:37.728Z,17.92
2022-10-11T02:15:41.138Z,17.52
2022-10-11T02:17:47.995Z,17.20
2022-10-11T02:19:51.956Z,17.73
2022-10-11T02:21:57.202Z,18.27
2022-10-11T02:24:20.627Z,19.08
2022-10-11T02:26:23.760Z,17.60
2022-10-11T02:28:30.130Z,17.98
2022-10-11T02:30:32.249Z,17.92
2022-10-11T02:32:34.667Z,19.15
2022-10-11T02:34:40.023Z,19.27
2022-10-11T02:37:09.018Z,18.50
2022-10-11T02:39:15.684Z,17.52
2022-10-11T02:41:31.605Z,18.60
2022-10-11T02:43:43.495Z,18.35
2022-10-11T02:45:48.466Z,17.92
2022-10-11T02:47:50.297Z,18.20
2022-10-11T02:49:52.179Z,18.70
2022-10-11T02:51:56.359Z,17.67
2022-10-11T02:55:59.463Z,18.60
2022-10-11T02:58:01.490Z,18.20
2022-10-11T03:00:04.488Z,18.98
2022-10-11T03:02:06.159Z,18.70
2022-10-11T03:04:07.902Z,18.55
2022-10-11T03:06:09.719Z,18.25
2022-10-11T03:08:12.953Z,19.17
2022-10-11T03:10:14.747Z,18.77
2022-10-11T03:12:16.409Z,19.08
2022-10-11T03:14:18.136Z,19.50
2022-10-11T03:16:19.839Z,19.65
2022-10-11T03:18:21.959Z,19.80
2022-10-11T03:20:23.946Z,19.27
2022-10-11T03:22:25.637Z,19.25
2022-10-11T03:24:27.394Z,18.88
2022-10-11T03:26:29.075Z,19.40
2022-10-11T03:28:30.736Z,19.33
2022-10-11T03:30:32.831Z,19.08
2022-10-11T03:32:34.682Z,18.70
2022-10-11T03:34:36.336Z,18.85
2022-10-11T03:36:38.190Z,18.92
2022-10-11T03:38:39.943Z,18.73
2022-10-11T03:40:42.801Z,18.80
2022-10-11T03:42:44.477Z,17.83
2022-10-11T03:44:46.156Z,19.27
2022-10-11T03:46:47.786Z,18.48
2022-10-11T03:48:49.395Z,18.65
2022-10-11T03:51:00.080Z,18.90
2022-10-11T03:53:01.686Z,18.30
2022-10-11T03:55:03.665Z,17.25
2022-10-11T03:57:05.322Z,18.52
2022-10-11T03:59:06.954Z,18.52
2022-10-11T04:01:09.053Z,19.67
2022-10-11T04:03:10.758Z,19.60
2022-10-11T04:05:12.739Z,18.10
2022-10-11T04:07:14.404Z,19.88
2022-10-11T04:09:15.979Z,18.42
2022-10-11T04:11:17.614Z,19.23
2022-10-11T04:13:19.177Z,19.48
2022-10-11T04:15:20.767Z,19.17
2022-10-11T04:17:22.434Z,18.10
2022-10-11T04:19:24.152Z,18.48
2022-10-11T04:21:25.742Z,19.15
2022-10-11T04:23:27.630Z,18.30
2022-10-11T04:25:29.296Z,18.88
2022-10-11T04:27:30.899Z,19.55
2022-10-11T04:29:33.031Z,17.98
2022-10-11T04:31:34.660Z,18.90
2022-10-11T04:33:36.272Z,19.98
2022-10-11T04:35:37.922Z,19.20
2022-10-11T04:37:39.545Z,19.35
2022-10-11T04:39:41.327Z,19.42
2022-10-11T04:41:42.985Z,18.38
2022-10-11T04:43:44.562Z,19.95
2022-10-11T04:45:46.748Z,19.05
2022-10-11T04:47:48.665Z,20.88
2022-10-11T04:49:50.316Z,18.90
2022-10-11T04:51:52.019Z,19.33
2022-10-11T04:53:53.922Z,19.38
2022-10-11T04:56:01.255Z,20.73
2022-10-11T04:58:03.359Z,18.92
2022-10-11T05:00:05.613Z,19.90
2022-10-11T05:02:07.256Z,19.52
2022-10-11T05:04:09.052Z,19.25
2022-10-11T05:06:11.154Z,26.13
2022-10-11T05:08:13.081Z,19.17
2022-10-11T05:10:15.094Z,19.23
2022-10-11T05:12:16.658Z,17.58
2022-10-11T05:14:18.281Z,18.15
2022-10-11T05:16:19.980Z,19.17
2022-10-11T05:18:21.755Z,18.08
2022-10-11T05:20:23.465Z,18.92
2022-10-11T05:22:25.188Z,18.23
2022-10-11T05:24:26.884Z,17.20
2022-10-11T05:26:28.906Z,17.75
2022-10-11T05:28:30.777Z,18.42
2022-10-11T05:30:32.553Z,19.15
2022-10-11T05:32:34.182Z,18.27
2022-10-11T05:34:35.783Z,16.63
2022-10-11T05:36:37.403Z,19.55
2022-10-11T05:38:39.502Z,19.75
2022-10-11T05:40:41.109Z,20.23
2022-10-11T05:42:42.792Z,19.55
2022-10-11T05:44:44.655Z,19.40
2022-10-11T05:46:46.327Z,18.13
2022-10-11T05:48:48.032Z,18.40
2022-10-11T05:50:49.977Z,18.25
2022-10-11T05:52:51.574Z,17.90
2022-10-11T05:54:53.268Z,18.10
2022-10-11T05:56:54.825Z,19.20
2022-10-11T05:59:01.351Z,18.35
2022-10-11T06:01:04.223Z,17.23
2022-10-11T06:03:07.889Z,16.98
2022-10-11T06:05:09.657Z,16.60
2022-10-11T06:07:11.407Z,16.70
2022-10-11T06:09:13.312Z,16.50
2022-10-11T06:11:17.782Z,14.95
2022-10-11T06:13:19.434Z,15.20
2022-10-11T06:15:20.997Z,16.00
2022-10-11T06:17:23.876Z,17.08
2022-10-11T06:19:25.765Z,15.23
2022-10-11T06:21:27.477Z,14.80
2022-10-11T06:23:29.329Z,14.30
2022-10-11T06:25:31.201Z,14.90
2022-10-11T06:27:32.784Z,14.52
2022-10-11T06:29:35.425Z,14.75
2022-10-11T06:31:37.180Z,15.32
2022-10-11T06:33:39.089Z,14.93
2022-10-11T06:35:40.629Z,15.02
2022-10-11T06:37:42.301Z,16.02
2022-10-11T06:39:43.940Z,14.77
2022-10-11T06:41:45.856Z,14.95
2022-10-11T06:43:49.565Z,21.70
2022-10-11T06:47:52.666Z,14.38
2022-10-11T06:49:54.588Z,15.73
2022-10-11T06:51:56.220Z,14.88
2022-10-11T06:53:59.177Z,16.65
2022-10-11T06:56:11.580Z,16.98
2022-10-11T06:58:13.189Z,20.35
2022-10-11T07:00:15.333Z,18.80
2022-10-11T07:02:16.971Z,20.35
2022-10-11T07:04:18.530Z,19.20
2022-10-11T07:06:22.735Z,19.05
2022-10-11T07:08:24.364Z,20.55
2022-10-11T07:10:26.081Z,19.30
2022-10-11T07:12:28.911Z,20.30
2022-10-11T07:14:30.540Z,20.07
2022-10-11T07:16:32.151Z,19.83
2022-10-11T07:18:34.145Z,19.38
2022-10-11T07:20:35.944Z,19.65
2022-10-11T07:22:37.589Z,17.52
2022-10-11T07:24:39.745Z,18.05
2022-10-11T07:26:42.458Z,18.35
2022-10-11T07:28:44.754Z,20.88
2022-10-11T07:30:46.585Z,19.10
2022-10-11T07:32:48.326Z,18.85
2022-10-11T07:34:50.030Z,18.10
2022-10-11T07:36:51.603Z,43.35
2022-10-11T07:38:53.425Z,109.28
2022-10-11T07:40:55.137Z,78.07
2022-10-11T07:42:58.155Z,65.15
2022-10-11T07:44:59.791Z,37.22
2022-10-11T07:47:01.345Z,24.38
2022-10-11T07:49:02.950Z,21.20
2022-10-11T07:51:17.090Z,19.17
2022-10-11T07:55:20.135Z,32.65
2022-10-11T07:57:22.016Z,19.50
2022-10-11T07:59:23.653Z,20.55
2022-10-11T08:01:26.614Z,17.40
2022-10-11T08:03:28.588Z,17.42
2022-10-11T08:05:30.784Z,16.75
2022-10-11T08:07:32.426Z,17.58
2022-10-11T08:09:34.061Z,19.75
2022-10-11T08:11:37.508Z,25.70
2022-10-11T08:13:39.518Z,23.05
2022-10-11T08:15:41.358Z,19.02
2022-10-11T08:17:43.001Z,17.50
2022-10-11T08:19:44.654Z,16.50
2022-10-11T08:21:46.475Z,16.70
2022-10-11T08:23:48.181Z,16.40
2022-10-11T08:25:49.787Z,16.08
2022-10-11T08:27:51.447Z,17.50
2022-10-11T08:29:53.070Z,18.05
2022-10-11T08:31:54.690Z,17.60
2022-10-11T08:33:56.502Z,16.92
2022-10-11T08:35:58.486Z,18.13
2022-10-11T08:38:00.070Z,17.95
2022-10-11T08:40:03.430Z,18.08
2022-10-11T08:42:19.640Z,17.05
2022-10-11T08:44:58.405Z,16.05
2022-10-11T08:47:20.956Z,16.77
2022-10-11T08:49:25.249Z,17.05
2022-10-11T08:51:43.209Z,17.27
2022-10-11T08:53:59.274Z,15.63
2022-10-11T08:56:04.475Z,16.42
2022-10-11T08:58:06.457Z,17.00
2022-10-11T09:00:14.656Z,16.70
2022-10-11T09:03:09.562Z,17.00
2022-10-11T09:05:15.998Z,16.42
2022-10-11T09:07:22.723Z,16.85
2022-10-11T09:10:02.895Z,16.48
2022-10-11T09:12:18.903Z,17.10
2022-10-11T09:14:39.021Z,16.00
2022-10-11T09:16:55.829Z,15.77
2022-10-11T09:19:28.477Z,15.80
2022-10-11T09:21:42.942Z,16.70
2022-10-11T09:24:23.937Z,15.85
2022-10-11T09:26:38.007Z,15.60
2022-10-11T09:28:51.083Z,16.60
2022-10-11T09:30:55.118Z,15.52
2022-10-11T09:33:03.548Z,16.83
2022-10-11T09:35:24.490Z,16.45
2022-10-11T09:37:33.666Z,16.70
2022-10-11T09:39:45.230Z,15.23
2022-10-11T09:41:58.885Z,15.20
2022-10-11T09:44:00.504Z,13.77
2022-10-11T09:46:02.364Z,14.35
2022-10-11T09:48:05.884Z,15.68
2022-10-11T09:50:15.148Z,17.92
2022-10-11T09:52:19.364Z,15.07
2022-10-11T09:54:27.350Z,14.63
2022-10-11T09:56:30.528Z,82.60
2022-10-11T09:58:35.249Z,15.27
2022-10-11T10:00:36.941Z,15.75
2022-10-11T10:02:42.675Z,29.35
2022-10-11T10:05:10.317Z,35.70
2022-10-11T10:07:13.162Z,17.48
2022-10-11T10:09:24.300Z,15.40
2022-10-11T10:11:26.093Z,15.13
2022-10-11T10:13:51.077Z,40.92
2022-10-11T10:15:56.066Z,86.30
2022-10-11T10:17:58.310Z,31.05
2022-10-11T10:20:00.695Z,105.13
2022-10-11T10:22:02.415Z,44.88
2022-10-11T10:24:08.911Z,30.70
2022-10-11T10:26:13.768Z,14.93
2022-10-11T10:28:22.449Z,16.90
2022-10-11T10:30:24.973Z,13.73
2022-10-11T10:32:32.270Z,13.60
2022-10-11T10:34:35.991Z,15.43
2022-10-11T10:38:56.867Z,18.25
2022-10-11T10:41:11.089Z,15.63
2022-10-11T10:43:17.273Z,15.05
2022-10-11T10:45:21.849Z,14.82
2022-10-11T10:47:40.879Z,15.88
2022-10-11T10:49:55.221Z,14.35
2022-10-11T10:52:09.340Z,14.77
2022-10-11T10:54:25.416Z,15.77
2022-10-11T10:56:46.821Z,15.50
2022-10-11T10:59:29.886Z,15.15
2022-10-11T11:01:45.738Z,14.45
2022-10-11T11:04:25.812Z,16.45
2022-10-11T11:06:35.742Z,16.10
2022-10-11T11:09:15.841Z,17.02
2022-10-11T11:11:38.846Z,17.90
2022-10-11T11:13:49.499Z,14.57
2022-10-11T11:16:10.690Z,14.80
2022-10-11T11:19:23.453Z,16.75
2022-10-11T11:21:31.093Z,15.30
2022-10-11T11:23:46.389Z,14.00
2022-10-11T11:26:10.524Z,15.25
2022-10-11T11:28:17.243Z,14.75
2022-10-11T11:30:41.062Z,15.10
2022-10-11T11:33:16.343Z,14.75
2022-10-11T11:35:48.814Z,13.95
2022-10-11T11:38:00.157Z,13.65
2022-10-11T11:40:43.665Z,16.92
2022-10-11T11:42:50.917Z,15.60
2022-10-11T11:44:53.136Z,14.90
2022-10-11T11:47:05.041Z,15.57
2022-10-11T11:49:13.432Z,14.13
2022-10-11T11:51:30.591Z,15.75
2022-10-11T11:54:02.862Z,18.27
2022-10-11T11:56:26.891Z,13.85
2022-10-11T11:58:49.617Z,16.02
2022-10-11T12:01:01.462Z,14.13
2022-10-11T12:03:09.988Z,14.93
2022-10-11T12:05:15.157Z,14.75
2022-10-11T12:07:23.110Z,14.30
2022-10-11T12:09:24.965Z,14.30
2022-10-11T12:11:33.147Z,15.23
2022-10-11T12:13:38.353Z,14.80
2022-10-11T12:15:40.103Z,15.65
2022-10-11T12:17:57.186Z,15.82
2022-10-11T12:20:13.444Z,14.90
2022-10-11T12:22:27.218Z,17.27
2022-10-11T12:24:58.465Z,15.15
2022-10-11T12:27:36.573Z,16.23
2022-10-11T12:29:47.541Z,14.63
2022-10-11T12:32:32.042Z,16.50
2022-10-11T12:34:43.075Z,15.90
2022-10-11T12:36:49.338Z,17.55
2022-10-11T12:39:18.667Z,19.10
2022-10-11T12:41:38.485Z,15.38
2022-10-11T12:43:49.211Z,14.95
2022-10-11T12:45:51.154Z,16.15
2022-10-11T12:48:01.643Z,14.82
2022-10-11T12:50:29.357Z,14.60
2022-10-11T12:52:42.772Z,15.80
2022-10-11T12:54:53.516Z,15.75
2022-10-11T12:57:23.093Z,14.57
2022-10-11T12:59:25.081Z,14.98
2022-10-11T13:01:29.527Z,14.63
2022-10-11T13:03:35.369Z,13.45
2022-10-11T13:05:49.742Z,14.15
2022-10-11T13:07:56.130Z,14.80
2022-10-11T13:09:58.053Z,16.42
2022-10-11T13:12:08.921Z,15.23
2022-10-11T13:14:16.376Z,15.02
2022-10-11T13:16:21.446Z,13.93
2022-10-11T13:18:25.221Z,15.90
2022-10-11T13:20:31.109Z,15.57
2022-10-11T13:22:35.660Z,14.18
2022-10-11T13:24:39.998Z,15.05
2022-10-11T13:26:43.497Z,14.63
2022-10-11T13:28:45.246Z,14.10
2022-10-11T13:30:49.794Z,15.15
2022-10-11T13:32:52.216Z,14.43
2022-10-11T13:35:01.312Z,14.48
2022-10-11T13:37:02.980Z,15.20
2022-10-11T13:39:04.828Z,13.82
2022-10-11T13:41:09.081Z,14.50
2022-10-11T13:43:12.549Z,14.57
2022-10-11T13:45:16.693Z,13.25
2022-10-11T13:47:21.402Z,14.45
2022-10-11T13:49:37.432Z,13.13
2022-10-11T13:51:39.381Z,12.82
2022-10-11T13:54:00.695Z,14.13
2022-10-11T13:56:08.210Z,14.23
2022-10-11T13:58:18.772Z,13.32
2022-10-11T14:00:24.112Z,12.57
2022-10-11T14:02:26.516Z,14.00
2022-10-11T14:04:29.941Z,12.85
2022-10-11T14:08:48.597Z,13.38
2022-10-11T14:10:55.644Z,13.27
2022-10-11T14:13:00.499Z,13.82
2022-10-11T14:17:10.626Z,13.43
2022-10-11T14:19:12.601Z,13.50
2022-10-11T14:21:23.061Z,14.45
2022-10-11T14:23:24.861Z,15.15
2022-10-11T14:25:26.752Z,15.40
2022-10-11T14:27:28.781Z,16.52
2022-10-11T14:29:38.871Z,15.73
2022-10-11T14:31:42.141Z,14.95
2022-10-11T14:33:44.109Z,15.60
2022-10-11T14:35:45.734Z,15.85
2022-10-11T14:37:47.778Z,15.60
2022-10-11T14:39:49.617Z,14.77
2022-10-11T14:41:52.092Z,16.65
2022-10-11T14:43:56.421Z,15.85
2022-10-11T14:45:58.278Z,17.45
2022-10-11T14:47:59.883Z,17.42
2022-10-11T14:50:02.664Z,16.15
2022-10-11T14:52:07.489Z,16.53
2022-10-11T14:54:11.190Z,18.13
2022-10-11T14:58:23.260Z,17.58
2022-10-11T15:00:28.248Z,17.67
2022-10-11T15:02:29.871Z,17.23
2022-10-11T15:04:31.689Z,16.20
2022-10-11T15:06:34.660Z,15.15
2022-10-11T15:08:36.253Z,14.82
2022-10-11T15:10:39.944Z,15.20
2022-10-11T15:14:43.145Z,13.65
2022-10-11T15:16:44.737Z,13.30
2022-10-11T15:18:51.143Z,12.15
2022-10-11T15:20:54.982Z,12.98
2022-10-11T15:22:57.171Z,12.55
2022-10-11T15:25:00.280Z,13.45
2022-10-11T15:27:01.891Z,12.63
2022-10-11T15:29:03.765Z,12.32
2022-10-11T15:31:05.408Z,12.65
2022-10-11T15:33:06.999Z,13.52
2022-10-11T15:35:08.937Z,11.70
2022-10-11T15:37:10.597Z,12.57
2022-10-11T15:39:32.682Z,11.25
2022-10-11T15:41:34.293Z,12.30
2022-10-11T15:43:35.864Z,12.27
2022-10-11T15:45:37.465Z,11.38
2022-10-11T15:47:39.342Z,11.23
2022-10-11T15:49:40.898Z,13.02
2022-10-11T15:51:42.653Z,12.93
2022-10-11T15:53:44.716Z,13.48
2022-10-11T15:55:51.601Z,12.50
2022-10-11T15:57:53.217Z,12.43
2022-10-11T15:59:54.871Z,11.80
2022-10-11T16:01:57.227Z,12.55
2022-10-11T16:03:58.927Z,11.15
2022-10-11T16:06:05.170Z,11.90
2022-10-11T16:08:07.787Z,11.25
2022-10-11T16:10:09.644Z,10.63
2022-10-11T16:12:11.328Z,11.18
2022-10-11T16:14:12.917Z,11.43
2022-10-11T16:16:14.610Z,11.88
2022-10-11T16:18:18.460Z,10.85
2022-10-11T16:20:24.661Z,10.60
2022-10-11T16:22:26.933Z,10.25
2022-10-11T16:24:28.581Z,10.23
2022-10-11T16:26:30.183Z,10.02
2022-10-11T16:28:32.404Z,9.55
2022-10-11T16:30:35.368Z,9.25
2022-10-11T16:32:36.900Z,9.20
2022-10-11T16:34:38.757Z,9.88
2022-10-11T16:36:40.953Z,10.18
2022-10-11T16:38:42.577Z,9.68
2022-10-11T16:40:44.278Z,9.20
2022-10-11T16:42:46.854Z,9.52
2022-10-11T16:44:48.427Z,10.07
2022-10-11T16:46:50.201Z,10.50
2022-10-11T16:48:55.252Z,10.30
2022-10-11T16:51:05.428Z,9.85
2022-10-11T16:53:07.153Z,10.27
2022-10-11T16:55:09.235Z,10.70
2022-10-11T16:57:11.846Z,10.40
2022-10-11T16:59:13.542Z,10.82
2022-10-11T17:01:15.400Z,11.50
2022-10-11T17:03:17.049Z,11.05
2022-10-11T17:05:18.717Z,11.43
2022-10-11T17:07:21.577Z,11.40
2022-10-11T17:09:23.282Z,12.47
2022-10-11T17:11:24.998Z,12.82
2022-10-11T17:13:26.721Z,12.52
2022-10-11T17:15:30.444Z,12.85
2022-10-11T17:19:34.071Z,12.45
2022-10-11T17:21:35.691Z,13.80
2022-10-11T17:23:37.788Z,13.23
2022-10-11T17:25:43.523Z,13.65
2022-10-11T17:27:45.117Z,12.40
2022-10-11T17:29:46.705Z,13.30
2022-10-11T17:31:49.471Z,12.52
2022-10-11T17:33:53.159Z,13.13
2022-10-11T17:35:55.517Z,12.20
2022-10-11T17:37:57.170Z,12.23
2022-10-11T17:39:58.821Z,12.75
2022-10-11T17:42:05.031Z,11.88
2022-10-11T17:44:06.680Z,13.02
2022-10-11T17:46:09.342Z,12.05
2022-10-11T17:48:11.059Z,11.43
2022-10-11T17:50:12.732Z,12.23
2022-10-11T17:52:14.296Z,11.48
2022-10-11T17:54:16.746Z,11.63
2022-10-11T17:56:27.795Z,11.35
2022-10-11T17:58:30.476Z,10.82
2022-10-11T18:00:32.135Z,10.93
2022-10-11T18:02:33.829Z,10.70
2022-10-11T18:04:35.493Z,11.30
2022-10-11T18:06:39.426Z,11.40
2022-10-11T18:08:41.886Z,12.65
2022-10-11T18:10:47.463Z,11.07
2022-10-11T18:12:53.349Z,11.60
2022-10-11T18:14:54.949Z,11.07
2022-10-11T18:16:56.905Z,10.90
2022-10-11T18:18:59.226Z,11.73
2022-10-11T18:21:01.336Z,12.00
2022-10-11T18:23:02.961Z,11.13
2022-10-11T18:25:04.917Z,11.00
2022-10-11T18:27:06.505Z,10.63
2022-10-11T18:29:08.180Z,11.07
2022-10-11T18:31:13.876Z,11.00
2022-10-11T18:33:16.432Z,11.23
2022-10-11T18:35:18.054Z,11.02
2022-10-11T18:37:19.677Z,11.52
2022-10-11T18:39:22.012Z,11.23
2022-10-11T18:41:25.130Z,10.70
2022-10-11T18:43:26.928Z,10.93
2022-10-11T18:45:28.546Z,11.60
2022-10-11T18:47:30.209Z,11.60
2022-10-11T18:49:31.812Z,11.60
2022-10-11T18:51:36.813Z,12.35
2022-10-11T18:53:38.662Z,11.73
2022-10-11T18:55:40.297Z,11.80
2022-10-11T18:57:42.179Z,11.52
2022-10-11T18:59:43.769Z,12.00
2022-10-11T19:01:45.488Z,12.27
2022-10-11T19:03:49.756Z,11.88
2022-10-11T19:05:51.345Z,11.43
2022-10-11T19:07:52.909Z,11.35
2022-10-11T19:09:54.562Z,11.75
2022-10-11T19:11:57.501Z,11.57
2022-10-11T19:14:08.490Z,12.40
2022-10-11T19:16:15.280Z,11.98
2022-10-11T19:18:20.363Z,12.18
2022-10-11T19:20:22.195Z,11.88
2022-10-11T19:22:23.890Z,12.35
2022-10-11T19:24:27.615Z,12.60
2022-10-11T19:28:33.575Z,13.10
2022-10-11T19:30:35.188Z,12.32
2022-10-11T19:32:36.766Z,12.15
2022-10-11T19:34:38.452Z,13.10
2022-10-11T19:36:43.368Z,12.38
2022-10-11T19:38:46.874Z,11.75
2022-10-11T19:40:48.511Z,11.50
2022-10-11T19:42:50.356Z,13.10
2022-10-11T19:44:52.070Z,12.25
2022-10-11T19:46:53.683Z,11.65
2022-10-11T19:48:55.360Z,12.02
2022-10-11T19:51:08.691Z,12.25
2022-10-11T19:53:10.252Z,12.57
2022-10-11T19:55:11.878Z,12.32
2022-10-11T19:57:13.454Z,12.40
2022-10-11T19:59:15.466Z,12.35
2022-10-11T20:01:19.985Z,12.68
2022-10-11T20:03:21.734Z,14.45
2022-10-11T20:05:23.305Z,16.00
2022-10-11T20:07:24.950Z,15.93
2022-10-11T20:09:30.858Z,16.60
2022-10-11T20:11:32.750Z,16.83
2022-10-11T20:13:35.635Z,16.35
2022-10-11T20:15:38.201Z,17.30
2022-10-11T20:17:48.772Z,16.58
2022-10-11T20:19:50.408Z,16.33
2022-10-11T20:21:52.231Z,15.68
2022-10-11T20:23:57.709Z,17.80
2022-10-11T20:26:04.389Z,16.67
2022-10-11T20:28:06.010Z,17.08
2022-10-11T20:30:08.025Z,16.85
2022-10-11T20:32:09.664Z,16.63
2022-10-11T20:34:11.628Z,17.58
2022-10-11T20:36:15.889Z,17.77
2022-10-11T20:38:17.485Z,18.02
2022-10-11T20:40:19.641Z,18.48
2022-10-11T20:42:21.245Z,17.70
2022-10-11T20:44:23.024Z,18.85
2022-10-11T20:46:27.972Z,18.33
2022-10-11T20:48:30.183Z,18.67
2022-10-11T20:50:31.753Z,19.38
2022-10-11T20:52:33.633Z,18.65
2022-10-11T20:54:37.080Z,17.92
2022-10-11T20:56:38.915Z,18.08
2022-10-11T20:58:41.417Z,18.65
2022-10-11T21:00:43.632Z,18.35
2022-10-11T21:02:45.206Z,19.00
2022-10-11T21:04:47.139Z,19.85
2022-10-11T21:06:49.003Z,19.55
2022-10-11T21:08:50.573Z,19.83
2022-10-11T21:10:53.570Z,19.73
2022-10-11T21:12:55.644Z,20.33
2022-10-11T21:14:57.337Z,20.08
2022-10-11T21:16:58.889Z,18.52
2022-10-11T21:19:01.703Z,19.58
2022-10-11T21:21:12.282Z,19.37
2022-10-11T21:23:14.710Z,19.48
2022-10-11T21:25:16.374Z,18.90
2022-10-11T21:27:18.015Z,18.60
2022-10-11T21:29:19.629Z,18.95
2022-10-11T21:31:22.543Z,19.27
2022-10-11T21:33:24.203Z,19.17
2022-10-11T21:35:27.241Z,21.35
2022-10-11T21:37:28.810Z,19.90
2022-10-11T21:39:30.502Z,17.90
2022-10-11T21:41:33.982Z,17.95
2022-10-11T21:43:38.120Z,19.67
2022-10-11T21:45:39.829Z,19.30
2022-10-11T21:47:43.685Z,19.20
2022-10-11T21:49:45.341Z,18.55
2022-10-11T21:51:47.019Z,19.55
2022-10-11T21:53:48.635Z,18.65
2022-10-11T21:55:57.225Z,19.48
2022-10-11T21:57:59.003Z,18.83
2022-10-11T22:00:00.611Z,18.60
2022-10-11T22:02:02.392Z,19.55
2022-10-11T22:04:05.075Z,19.55
2022-10-11T22:06:06.685Z,18.92
2022-10-11T22:08:08.307Z,19.63
2022-10-11T22:10:10.034Z,20.15
2022-10-11T22:12:11.604Z,18.38
2022-10-11T22:14:13.144Z,19.08
2022-10-11T22:16:15.117Z,19.98
2022-10-11T22:18:16.841Z,21.55
2022-10-11T22:20:18.446Z,22.77
2022-10-11T22:22:20.044Z,19.60
2022-10-11T22:24:21.680Z,23.20
2022-10-11T22:26:25.753Z,23.27
2022-10-11T22:28:27.659Z,23.45
2022-10-11T22:30:29.521Z,20.70
2022-10-11T22:32:31.159Z,22.30
2022-10-11T22:34:33.399Z,22.88
2022-10-11T22:36:35.117Z,22.20
2022-10-11T22:38:37.629Z,22.38
2022-10-11T22:40:42.321Z,21.98
2022-10-11T22:42:44.389Z,23.95
2022-10-11T22:44:46.062Z,24.05
2022-10-11T22:46:47.750Z,24.35
2022-10-11T22:48:49.366Z,25.77
2022-10-11T22:50:51.469Z,25.45
2022-10-11T22:52:53.036Z,25.77
2022-10-11T22:54:54.622Z,24.40
2022-10-11T22:56:56.440Z,23.70
2022-10-11T22:58:59.381Z,24.02
2022-10-11T23:01:12.135Z,24.23
2022-10-11T23:03:15.271Z,24.40
2022-10-11T23:05:16.911Z,24.83
2022-10-11T23:07:18.655Z,24.23
2022-10-11T23:09:20.353Z,24.48
2022-10-11T23:11:21.981Z,23.30
2022-10-11T23:13:23.605Z,25.85
2022-10-11T23:15:25.274Z,23.98
2022-10-11T23:17:26.894Z,24.25
2022-10-11T23:19:28.617Z,24.58
2022-10-11T23:21:30.190Z,26.17
2022-10-11T23:23:31.827Z,25.50
2022-10-11T23:25:33.597Z,25.05
2022-10-11T23:27:35.500Z,24.52
2022-10-11T23:29:40.969Z,25.50
2022-10-11T23:31:42.573Z,25.00
2022-10-11T23:33:45.220Z,25.48
2022-10-11T23:35:47.037Z,24.98
2022-10-11T23:37:48.840Z,26.13
2022-10-11T23:39:50.480Z,24.42
2022-10-11T23:41:52.079Z,23.95
2022-10-11T23:43:53.791Z,25.17
2022-10-11T23:45:55.928Z,24.38
2022-10-11T23:47:57.515Z,25.02
2022-10-11T23:49:59.146Z,25.88
2022-10-11T23:52:00.816Z,25.17
2022-10-11T23:54:02.826Z,24.00
2022-10-11T23:56:05.649Z,25.00
2022-10-11T23:58:07.247Z,25.47
